sensor_id;sensor_type;location;lat;lon;timestamp;P1;durP1;ratioP1;P2;durP2;ratioP2
48487;SDS011;34289;48.572;13.378;2022-08-21T08:21:28;16.80;;;15.20;;
48487;SDS011;34289;48.572;13.378;2022-08-21T08:23:54;16.85;;;15.13;;
48487;SDS011;34289;48.572;13.378;2022-08-21T08:26:20;19.27;;;16.75;;
48487;SDS011;34289;48.572;13.378;2022-08-21T08:28:45;17.30;;;15.52;;
48487;SDS011;34289;48.572;13.378;2022-08-21T08:31:12;17.90;;;14.32;;
48487;SDS011;34289;48.572;13.378;2022-08-21T08:33:38;17.35;;;15.05;;
48487;SDS011;34289;48.572;13.378;2022-08-21T08:36:04;18.65;;;15.40;;
48487;SDS011;34289;48.572;13.378;2022-08-21T08:38:30;18.23;;;16.30;;
48487;SDS011;34289;48.572;13.378;2022-08-21T08:43:37;19.55;;;15.30;;
48487;SDS011;34289;48.572;13.378;2022-08-21T08:46:06;18.95;;;16.60;;
48487;SDS011;34289;48.572;13.378;2022-08-21T08:51:46;16.17;;;14.48;;
48487;SDS011;34289;48.572;13.378;2022-08-21T08:54:30;20.42;;;15.77;;
48487;SDS011;34289;48.572;13.378;2022-08-21T08:57:10;18.00;;;16.00;;
48487;SDS011;34289;48.572;13.378;2022-08-21T08:59:44;22.85;;;17.02;;
48487;SDS011;34289;48.572;13.378;2022-08-21T09:02:13;18.63;;;16.67;;
48487;SDS011;34289;48.572;13.378;2022-08-21T09:04:41;18.85;;;16.85;;
48487;SDS011;34289;48.572;13.378;2022-08-21T09:26:14;19.75;;;16.40;;
48487;SDS011;34289;48.572;13.378;2022-08-21T09:28:42;17.67;;;15.85;;
48487;SDS011;34289;48.572;13.378;2022-08-21T09:31:30;17.48;;;15.70;;
48487;SDS011;34289;48.572;13.378;2022-08-21T09:34:10;19.92;;;16.98;;
48487;SDS011;34289;48.572;13.378;2022-08-21T09:36:38;17.02;;;15.32;;
48487;SDS011;34289;48.572;13.378;2022-08-21T09:39:10;21.17;;;16.77;;
48487;SDS011;34289;48.572;13.378;2022-08-21T09:41:38;19.48;;;17.13;;
48487;SDS011;34289;48.572;13.378;2022-08-21T09:44:05;19.17;;;15.70;;
48487;SDS011;34289;48.572;13.378;2022-08-21T09:46:33;18.20;;;16.30;;
48487;SDS011;34289;48.572;13.378;2022-08-21T09:49:00;16.13;;;14.40;;
48487;SDS011;34289;48.572;13.378;2022-08-21T09:51:31;17.15;;;15.35;;
48487;SDS011;34289;48.572;13.378;2022-08-21T09:56:32;15.50;;;13.88;;
48487;SDS011;34289;48.572;13.378;2022-08-21T10:01:58;17.73;;;14.77;;
48487;SDS011;34289;48.572;13.378;2022-08-21T10:04:49;19.05;;;15.40;;
48487;SDS011;34289;48.572;13.378;2022-08-21T10:07:36;14.18;;;12.80;;
48487;SDS011;34289;48.572;13.378;2022-08-21T10:10:04;14.10;;;12.70;;
48487;SDS011;34289;48.572;13.378;2022-08-21T10:20:29;13.70;;;12.15;;
48487;SDS011;34289;48.572;13.378;2022-08-21T10:23:40;14.65;;;12.82;;
48487;SDS011;34289;48.572;13.378;2022-08-21T10:32:02;15.18;;;13.60;;
48487;SDS011;34289;48.572;13.378;2022-08-21T10:34:36;14.02;;;12.60;;
48487;SDS011;34289;48.572;13.378;2022-08-21T10:48:13;11.07;;;10.10;;
48487;SDS011;34289;48.572;13.378;2022-08-21T10:51:24;11.88;;;10.70;;
48487;SDS011;34289;48.572;13.378;2022-08-21T10:56:23;11.63;;;10.43;;
48487;SDS011;34289;48.572;13.378;2022-08-21T10:58:54;10.85;;;9.75;;
48487;SDS011;34289;48.572;13.378;2022-08-21T11:02:02;10.27;;;9.23;;
48487;SDS011;34289;48.572;13.378;2022-08-21T11:04:45;13.10;;;10.35;;
48487;SDS011;34289;48.572;13.378;2022-08-21T11:07:30;9.98;;;9.00;;
48487;SDS011;34289;48.572;13.378;2022-08-21T11:09:58;9.85;;;8.95;;
48487;SDS011;34289;48.572;13.378;2022-08-21T11:13:06;8.98;;;8.18;;
48487;SDS011;34289;48.572;13.378;2022-08-21T11:15:37;9.38;;;8.52;;
48487;SDS011;34289;48.572;13.378;2022-08-21T11:26:57;8.77;;;7.88;;
48487;SDS011;34289;48.572;13.378;2022-08-21T11:29:48;7.22;;;6.18;;
48487;SDS011;34289;48.572;13.378;2022-08-21T11:45:50;8.32;;;7.60;;
48487;SDS011;34289;48.572;13.378;2022-08-21T11:50:50;7.82;;;6.43;;
48487;SDS011;34289;48.572;13.378;2022-08-21T11:55:50;7.57;;;6.90;;
48487;SDS011;34289;48.572;13.378;2022-08-21T11:58:25;5.70;;;5.20;;
48487;SDS011;34289;48.572;13.378;2022-08-21T12:01:01;5.88;;;5.28;;
48487;SDS011;34289;48.572;13.378;2022-08-21T12:03:33;5.80;;;5.30;;
48487;SDS011;34289;48.572;13.378;2022-08-21T12:06:02;7.13;;;5.70;;
48487;SDS011;34289;48.572;13.378;2022-08-21T12:16:29;6.05;;;5.35;;
48487;SDS011;34289;48.572;13.378;2022-08-21T12:19:09;6.88;;;6.28;;
48487;SDS011;34289;48.572;13.378;2022-08-21T12:21:48;6.55;;;5.95;;
48487;SDS011;34289;48.572;13.378;2022-08-21T12:27:12;7.05;;;6.45;;
48487;SDS011;34289;48.572;13.378;2022-08-21T12:29:45;7.15;;;6.25;;
48487;SDS011;34289;48.572;13.378;2022-08-21T12:34:50;6.40;;;5.80;;
48487;SDS011;34289;48.572;13.378;2022-08-21T12:37:33;7.60;;;6.70;;
48487;SDS011;34289;48.572;13.378;2022-08-21T12:40:28;8.35;;;6.47;;
48487;SDS011;34289;48.572;13.378;2022-08-21T12:43:20;7.60;;;6.13;;
48487;SDS011;34289;48.572;13.378;2022-08-21T12:45:59;6.35;;;5.70;;
48487;SDS011;34289;48.572;13.378;2022-08-21T12:48:33;6.18;;;5.50;;
48487;SDS011;34289;48.572;13.378;2022-08-21T12:51:12;7.38;;;6.25;;
48487;SDS011;34289;48.572;13.378;2022-08-21T12:53:44;7.88;;;5.85;;
48487;SDS011;34289;48.572;13.378;2022-08-21T12:56:12;6.07;;;5.47;;
48487;SDS011;34289;48.572;13.378;2022-08-21T12:58:46;6.13;;;5.50;;
48487;SDS011;34289;48.572;13.378;2022-08-21T13:03:45;5.53;;;5.03;;
48487;SDS011;34289;48.572;13.378;2022-08-21T13:06:15;6.18;;;5.57;;
48487;SDS011;34289;48.572;13.378;2022-08-21T13:08:44;5.93;;;5.40;;
48487;SDS011;34289;48.572;13.378;2022-08-21T13:11:13;5.40;;;4.97;;
48487;SDS011;34289;48.572;13.378;2022-08-21T13:13:42;5.95;;;5.45;;
48487;SDS011;34289;48.572;13.378;2022-08-21T13:16:13;6.05;;;5.43;;
48487;SDS011;34289;48.572;13.378;2022-08-21T13:18:53;7.80;;;5.63;;
48487;SDS011;34289;48.572;13.378;2022-08-21T13:21:42;6.88;;;6.18;;
48487;SDS011;34289;48.572;13.378;2022-08-21T13:24:19;11.73;;;5.97;;
48487;SDS011;34289;48.572;13.378;2022-08-21T13:26:50;5.68;;;5.18;;
48487;SDS011;34289;48.572;13.378;2022-08-21T13:29:20;6.15;;;5.28;;
48487;SDS011;34289;48.572;13.378;2022-08-21T13:34:25;7.07;;;4.65;;
48487;SDS011;34289;48.572;13.378;2022-08-21T13:36:58;6.43;;;4.68;;
48487;SDS011;34289;48.572;13.378;2022-08-21T13:39:27;5.40;;;4.93;;
48487;SDS011;34289;48.572;13.378;2022-08-21T13:41:54;5.00;;;4.50;;
48487;SDS011;34289;48.572;13.378;2022-08-21T13:44:22;4.70;;;4.30;;
48487;SDS011;34289;48.572;13.378;2022-08-21T13:46:56;5.90;;;5.30;;
48487;SDS011;34289;48.572;13.378;2022-08-21T13:49:45;6.72;;;6.13;;
48487;SDS011;34289;48.572;13.378;2022-08-21T13:54:42;9.35;;;7.18;;
48487;SDS011;34289;48.572;13.378;2022-08-21T13:57:24;9.30;;;7.03;;
48487;SDS011;34289;48.572;13.378;2022-08-21T14:02:50;10.23;;;7.70;;
48487;SDS011;34289;48.572;13.378;2022-08-21T14:08:37;8.65;;;7.70;;
48487;SDS011;34289;48.572;13.378;2022-08-21T14:10:51;8.18;;;7.47;;
48487;SDS011;34289;48.572;13.378;2022-08-21T14:13:28;9.57;;;8.57;;
48487;SDS011;34289;48.572;13.378;2022-08-21T14:15:59;11.18;;;9.93;;
48487;SDS011;34289;48.572;13.378;2022-08-21T14:18:26;10.15;;;8.52;;
48487;SDS011;34289;48.572;13.378;2022-08-21T14:21:03;10.45;;;7.68;;
48487;SDS011;34289;48.572;13.378;2022-08-21T14:23:30;13.02;;;8.77;;
48487;SDS011;34289;48.572;13.378;2022-08-21T14:25:58;11.27;;;7.75;;
48487;SDS011;34289;48.572;13.378;2022-08-21T14:28:28;10.38;;;8.57;;
48487;SDS011;34289;48.572;13.378;2022-08-21T14:31:14;9.95;;;8.20;;
48487;SDS011;34289;48.572;13.378;2022-08-21T14:33:48;9.82;;;7.75;;
48487;SDS011;34289;48.572;13.378;2022-08-21T14:36:15;8.95;;;7.90;;
48487;SDS011;34289;48.572;13.378;2022-08-21T14:38:40;12.23;;;8.15;;
48487;SDS011;34289;48.572;13.378;2022-08-21T14:41:25;10.63;;;8.63;;
48487;SDS011;34289;48.572;13.378;2022-08-21T14:43:54;10.38;;;8.07;;
48487;SDS011;34289;48.572;13.378;2022-08-21T14:46:26;9.90;;;7.97;;
48487;SDS011;34289;48.572;13.378;2022-08-21T14:48:53;9.73;;;7.68;;
48487;SDS011;34289;48.572;13.378;2022-08-21T14:51:19;10.05;;;7.68;;
48487;SDS011;34289;48.572;13.378;2022-08-21T14:53:45;5.93;;;5.43;;
48487;SDS011;34289;48.572;13.378;2022-08-21T14:56:11;5.88;;;5.18;;
48487;SDS011;34289;48.572;13.378;2022-08-21T14:58:39;8.60;;;5.25;;
48487;SDS011;34289;48.572;13.378;2022-08-21T15:01:13;6.07;;;5.57;;
48487;SDS011;34289;48.572;13.378;2022-08-21T15:03:40;5.30;;;4.80;;
48487;SDS011;34289;48.572;13.378;2022-08-21T15:06:07;5.88;;;4.95;;
48487;SDS011;34289;48.572;13.378;2022-08-21T15:08:34;5.32;;;4.82;;
48487;SDS011;34289;48.572;13.378;2022-08-21T15:11:00;7.03;;;4.97;;
48487;SDS011;34289;48.572;13.378;2022-08-21T15:13:27;6.05;;;5.55;;
48487;SDS011;34289;48.572;13.378;2022-08-21T15:15:53;6.22;;;5.72;;
48487;SDS011;34289;48.572;13.378;2022-08-21T15:18:21;7.75;;;5.95;;
48487;SDS011;34289;48.572;13.378;2022-08-21T15:20:48;5.03;;;4.50;;
48487;SDS011;34289;48.572;13.378;2022-08-21T15:23:14;9.27;;;5.40;;
48487;SDS011;34289;48.572;13.378;2022-08-21T15:25:42;5.78;;;5.28;;
48487;SDS011;34289;48.572;13.378;2022-08-21T15:28:09;6.70;;;5.32;;
48487;SDS011;34289;48.572;13.378;2022-08-21T15:30:36;5.82;;;4.80;;
48487;SDS011;34289;48.572;13.378;2022-08-21T15:33:03;5.38;;;4.60;;
48487;SDS011;34289;48.572;13.378;2022-08-21T15:35:29;4.93;;;4.53;;
48487;SDS011;34289;48.572;13.378;2022-08-21T15:37:56;4.70;;;4.30;;
48487;SDS011;34289;48.572;13.378;2022-08-21T15:40:22;4.75;;;4.15;;
48487;SDS011;34289;48.572;13.378;2022-08-21T15:42:56;5.30;;;4.20;;
48487;SDS011;34289;48.572;13.378;2022-08-21T15:45:25;6.68;;;4.35;;
48487;SDS011;34289;48.572;13.378;2022-08-21T15:47:51;3.80;;;3.20;;
48487;SDS011;34289;48.572;13.378;2022-08-21T15:50:17;3.78;;;3.08;;
48487;SDS011;34289;48.572;13.378;2022-08-21T15:52:44;3.78;;;3.40;;
48487;SDS011;34289;48.572;13.378;2022-08-21T15:55:10;3.80;;;2.75;;
48487;SDS011;34289;48.572;13.378;2022-08-21T15:57:36;2.70;;;2.50;;
48487;SDS011;34289;48.572;13.378;2022-08-21T16:00:11;4.03;;;2.55;;
48487;SDS011;34289;48.572;13.378;2022-08-21T16:02:43;3.00;;;2.80;;
48487;SDS011;34289;48.572;13.378;2022-08-21T16:05:12;2.75;;;2.55;;
48487;SDS011;34289;48.572;13.378;2022-08-21T16:07:41;2.78;;;2.58;;
48487;SDS011;34289;48.572;13.378;2022-08-21T16:10:07;2.70;;;2.20;;
48487;SDS011;34289;48.572;13.378;2022-08-21T16:12:36;3.90;;;2.75;;
48487;SDS011;34289;48.572;13.378;2022-08-21T16:15:09;5.57;;;3.38;;
48487;SDS011;34289;48.572;13.378;2022-08-21T16:17:39;3.30;;;3.00;;
48487;SDS011;34289;48.572;13.378;2022-08-21T16:20:09;4.00;;;2.95;;
48487;SDS011;34289;48.572;13.378;2022-08-21T16:22:37;4.00;;;3.70;;
48487;SDS011;34289;48.572;13.378;2022-08-21T16:25:03;5.50;;;3.75;;
48487;SDS011;34289;48.572;13.378;2022-08-21T16:27:30;7.63;;;4.05;;
48487;SDS011;34289;48.572;13.378;2022-08-21T16:29:56;4.40;;;4.00;;
48487;SDS011;34289;48.572;13.378;2022-08-21T16:32:24;4.65;;;4.32;;
48487;SDS011;34289;48.572;13.378;2022-08-21T16:34:50;4.88;;;4.47;;
48487;SDS011;34289;48.572;13.378;2022-08-21T16:37:16;8.32;;;3.97;;
48487;SDS011;34289;48.572;13.378;2022-08-21T16:39:44;6.35;;;4.03;;
48487;SDS011;34289;48.572;13.378;2022-08-21T16:42:14;4.07;;;3.70;;
48487;SDS011;34289;48.572;13.378;2022-08-21T16:44:43;3.47;;;3.17;;
48487;SDS011;34289;48.572;13.378;2022-08-21T16:47:09;3.75;;;3.42;;
48487;SDS011;34289;48.572;13.378;2022-08-21T16:49:35;3.40;;;3.10;;
48487;SDS011;34289;48.572;13.378;2022-08-21T16:52:01;4.45;;;3.15;;
48487;SDS011;34289;48.572;13.378;2022-08-21T16:54:27;3.85;;;3.40;;
48487;SDS011;34289;48.572;13.378;2022-08-21T16:56:54;3.45;;;3.03;;
48487;SDS011;34289;48.572;13.378;2022-08-21T16:59:21;4.78;;;4.03;;
48487;SDS011;34289;48.572;13.378;2022-08-21T17:01:47;5.47;;;3.70;;
48487;SDS011;34289;48.572;13.378;2022-08-21T17:04:12;4.53;;;4.07;;
48487;SDS011;34289;48.572;13.378;2022-08-21T17:06:38;4.18;;;3.78;;
48487;SDS011;34289;48.572;13.378;2022-08-21T17:09:04;3.70;;;3.40;;
48487;SDS011;34289;48.572;13.378;2022-08-21T17:11:31;4.07;;;3.60;;
48487;SDS011;34289;48.572;13.378;2022-08-21T17:14:16;4.10;;;3.80;;
48487;SDS011;34289;48.572;13.378;2022-08-21T17:16:45;4.43;;;4.13;;
48487;SDS011;34289;48.572;13.378;2022-08-21T17:19:13;7.65;;;4.10;;
48487;SDS011;34289;48.572;13.378;2022-08-21T17:21:39;4.60;;;4.20;;
48487;SDS011;34289;48.572;13.378;2022-08-21T17:24:05;6.13;;;4.38;;
48487;SDS011;34289;48.572;13.378;2022-08-21T17:26:31;4.82;;;4.43;;
48487;SDS011;34289;48.572;13.378;2022-08-21T17:28:57;4.88;;;4.47;;
48487;SDS011;34289;48.572;13.378;2022-08-21T17:31:23;9.05;;;4.70;;
48487;SDS011;34289;48.572;13.378;2022-08-21T17:33:49;5.07;;;4.50;;
48487;SDS011;34289;48.572;13.378;2022-08-21T17:36:20;5.25;;;4.47;;
48487;SDS011;34289;48.572;13.378;2022-08-21T17:41:14;4.75;;;4.35;;
48487;SDS011;34289;48.572;13.378;2022-08-21T17:43:42;5.47;;;4.72;;
48487;SDS011;34289;48.572;13.378;2022-08-21T17:46:17;5.18;;;4.60;;
48487;SDS011;34289;48.572;13.378;2022-08-21T17:51:16;5.57;;;4.65;;
48487;SDS011;34289;48.572;13.378;2022-08-21T17:53:42;4.80;;;4.40;;
48487;SDS011;34289;48.572;13.378;2022-08-21T17:56:09;8.32;;;4.78;;
48487;SDS011;34289;48.572;13.378;2022-08-21T17:58:36;6.05;;;4.43;;
48487;SDS011;34289;48.572;13.378;2022-08-21T18:01:02;7.93;;;6.05;;
48487;SDS011;34289;48.572;13.378;2022-08-21T18:03:30;10.07;;;7.95;;
48487;SDS011;34289;48.572;13.378;2022-08-21T18:05:57;11.45;;;7.05;;
48487;SDS011;34289;48.572;13.378;2022-08-21T18:08:23;5.18;;;4.43;;
48487;SDS011;34289;48.572;13.378;2022-08-21T18:10:49;5.45;;;4.85;;
48487;SDS011;34289;48.572;13.378;2022-08-21T18:13:23;5.68;;;5.15;;
48487;SDS011;34289;48.572;13.378;2022-08-21T18:15:51;5.68;;;5.03;;
48487;SDS011;34289;48.572;13.378;2022-08-21T18:18:18;4.90;;;4.50;;
48487;SDS011;34289;48.572;13.378;2022-08-21T18:20:45;5.38;;;4.88;;
48487;SDS011;34289;48.572;13.378;2022-08-21T18:23:12;8.18;;;5.82;;
48487;SDS011;34289;48.572;13.378;2022-08-21T18:25:38;5.97;;;5.40;;
48487;SDS011;34289;48.572;13.378;2022-08-21T18:28:10;5.38;;;4.90;;
48487;SDS011;34289;48.572;13.378;2022-08-21T18:30:36;5.78;;;4.80;;
48487;SDS011;34289;48.572;13.378;2022-08-21T18:33:04;7.20;;;5.07;;
48487;SDS011;34289;48.572;13.378;2022-08-21T18:35:33;5.80;;;5.30;;
48487;SDS011;34289;48.572;13.378;2022-08-21T18:37:58;6.43;;;5.00;;
48487;SDS011;34289;48.572;13.378;2022-08-21T18:40:24;8.23;;;5.15;;
48487;SDS011;34289;48.572;13.378;2022-08-21T18:42:50;6.13;;;5.45;;
48487;SDS011;34289;48.572;13.378;2022-08-21T18:45:17;6.38;;;5.72;;
48487;SDS011;34289;48.572;13.378;2022-08-21T18:47:46;7.30;;;5.40;;
48487;SDS011;34289;48.572;13.378;2022-08-21T18:50:15;7.22;;;5.70;;
48487;SDS011;34289;48.572;13.378;2022-08-21T18:52:42;5.70;;;5.20;;
48487;SDS011;34289;48.572;13.378;2022-08-21T18:55:09;6.10;;;5.43;;
48487;SDS011;34289;48.572;13.378;2022-08-21T18:57:36;9.05;;;5.70;;
48487;SDS011;34289;48.572;13.378;2022-08-21T19:00:09;5.65;;;5.15;;
48487;SDS011;34289;48.572;13.378;2022-08-21T19:02:38;7.45;;;5.68;;
48487;SDS011;34289;48.572;13.378;2022-08-21T19:05:04;6.10;;;5.50;;
48487;SDS011;34289;48.572;13.378;2022-08-21T19:07:32;7.28;;;5.30;;
48487;SDS011;34289;48.572;13.378;2022-08-21T19:09:59;9.02;;;5.97;;
48487;SDS011;34289;48.572;13.378;2022-08-21T19:12:25;6.10;;;5.50;;
48487;SDS011;34289;48.572;13.378;2022-08-21T19:14:52;15.40;;;6.78;;
48487;SDS011;34289;48.572;13.378;2022-08-21T19:17:18;7.60;;;6.90;;
48487;SDS011;34289;48.572;13.378;2022-08-21T19:19:44;13.27;;;7.85;;
48487;SDS011;34289;48.572;13.378;2022-08-21T19:22:11;9.35;;;7.20;;
48487;SDS011;34289;48.572;13.378;2022-08-21T19:24:37;9.82;;;6.60;;
48487;SDS011;34289;48.572;13.378;2022-08-21T19:27:04;7.90;;;6.93;;
48487;SDS011;34289;48.572;13.378;2022-08-21T19:29:31;7.55;;;6.57;;
48487;SDS011;34289;48.572;13.378;2022-08-21T19:31:57;7.22;;;6.53;;
48487;SDS011;34289;48.572;13.378;2022-08-21T19:34:25;13.88;;;7.15;;
48487;SDS011;34289;48.572;13.378;2022-08-21T19:36:52;10.70;;;7.15;;
48487;SDS011;34289;48.572;13.378;2022-08-21T19:39:21;13.27;;;7.75;;
48487;SDS011;34289;48.572;13.378;2022-08-21T19:41:48;8.48;;;6.57;;
48487;SDS011;34289;48.572;13.378;2022-08-21T19:44:19;9.52;;;6.35;;
48487;SDS011;34289;48.572;13.378;2022-08-21T19:46:47;9.98;;;7.28;;
48487;SDS011;34289;48.572;13.378;2022-08-21T19:49:15;10.25;;;6.28;;
48487;SDS011;34289;48.572;13.378;2022-08-21T19:51:43;7.78;;;7.00;;
48487;SDS011;34289;48.572;13.378;2022-08-21T19:54:19;7.70;;;6.28;;
48487;SDS011;34289;48.572;13.378;2022-08-21T19:56:51;8.32;;;6.43;;
48487;SDS011;34289;48.572;13.378;2022-08-21T19:59:19;6.75;;;6.03;;
48487;SDS011;34289;48.572;13.378;2022-08-21T20:01:46;7.05;;;6.38;;
48487;SDS011;34289;48.572;13.378;2022-08-21T20:04:12;7.43;;;6.65;;
48487;SDS011;34289;48.572;13.378;2022-08-21T20:06:38;6.82;;;6.10;;
48487;SDS011;34289;48.572;13.378;2022-08-21T20:09:05;9.55;;;6.75;;
48487;SDS011;34289;48.572;13.378;2022-08-21T20:11:37;7.68;;;6.65;;
48487;SDS011;34289;48.572;13.378;2022-08-21T20:14:05;11.00;;;6.57;;
48487;SDS011;34289;48.572;13.378;2022-08-21T20:16:32;7.43;;;6.60;;
48487;SDS011;34289;48.572;13.378;2022-08-21T20:18:59;8.52;;;6.00;;
48487;SDS011;34289;48.572;13.378;2022-08-21T20:21:27;7.10;;;6.45;;
48487;SDS011;34289;48.572;13.378;2022-08-21T20:23:54;11.50;;;6.05;;
48487;SDS011;34289;48.572;13.378;2022-08-21T20:26:20;7.03;;;6.35;;
48487;SDS011;34289;48.572;13.378;2022-08-21T20:28:46;8.50;;;6.00;;
48487;SDS011;34289;48.572;13.378;2022-08-21T20:31:12;8.27;;;6.65;;
48487;SDS011;34289;48.572;13.378;2022-08-21T20:33:39;10.23;;;6.00;;
48487;SDS011;34289;48.572;13.378;2022-08-21T20:36:06;7.18;;;6.15;;
48487;SDS011;34289;48.572;13.378;2022-08-21T20:38:31;9.13;;;6.18;;
48487;SDS011;34289;48.572;13.378;2022-08-21T20:40:57;6.85;;;6.15;;
48487;SDS011;34289;48.572;13.378;2022-08-21T20:43:23;7.50;;;6.80;;
48487;SDS011;34289;48.572;13.378;2022-08-21T20:45:50;7.22;;;5.95;;
48487;SDS011;34289;48.572;13.378;2022-08-21T20:50:49;8.57;;;6.47;;
48487;SDS011;34289;48.572;13.378;2022-08-21T20:53:26;15.13;;;6.90;;
48487;SDS011;34289;48.572;13.378;2022-08-21T20:56:15;8.60;;;6.55;;
48487;SDS011;34289;48.572;13.378;2022-08-21T20:58:51;7.40;;;6.68;;
48487;SDS011;34289;48.572;13.378;2022-08-21T21:01:25;8.40;;;6.05;;
48487;SDS011;34289;48.572;13.378;2022-08-21T21:04:07;6.80;;;6.05;;
48487;SDS011;34289;48.572;13.378;2022-08-21T21:06:58;9.77;;;6.47;;
48487;SDS011;34289;48.572;13.378;2022-08-21T21:09:30;10.40;;;6.43;;
48487;SDS011;34289;48.572;13.378;2022-08-21T21:12:01;8.30;;;6.55;;
48487;SDS011;34289;48.572;13.378;2022-08-21T21:14:37;6.88;;;5.80;;
48487;SDS011;34289;48.572;13.378;2022-08-21T21:17:05;7.38;;;6.32;;
48487;SDS011;34289;48.572;13.378;2022-08-21T21:19:54;10.93;;;6.63;;
48487;SDS011;34289;48.572;13.378;2022-08-21T21:22:30;9.48;;;6.32;;
48487;SDS011;34289;48.572;13.378;2022-08-21T21:27:49;6.47;;;5.80;;
48487;SDS011;34289;48.572;13.378;2022-08-21T21:30:22;7.38;;;6.43;;
48487;SDS011;34289;48.572;13.378;2022-08-21T21:32:54;6.50;;;5.90;;
48487;SDS011;34289;48.572;13.378;2022-08-21T21:35:21;7.57;;;6.85;;
48487;SDS011;34289;48.572;13.378;2022-08-21T21:37:55;8.07;;;6.65;;
48487;SDS011;34289;48.572;13.378;2022-08-21T21:41:12;8.27;;;6.95;;
48487;SDS011;34289;48.572;13.378;2022-08-21T22:00:44;7.88;;;7.10;;
48487;SDS011;34289;48.572;13.378;2022-08-21T22:03:34;7.57;;;6.88;;
48487;SDS011;34289;48.572;13.378;2022-08-21T22:14:32;8.80;;;6.68;;
48487;SDS011;34289;48.572;13.378;2022-08-21T22:17:07;10.55;;;6.50;;
48487;SDS011;34289;48.572;13.378;2022-08-21T22:19:52;13.73;;;7.97;;
48487;SDS011;34289;48.572;13.378;2022-08-21T22:22:22;8.00;;;6.80;;
48487;SDS011;34289;48.572;13.378;2022-08-21T22:24:57;8.65;;;6.80;;
48487;SDS011;34289;48.572;13.378;2022-08-21T22:27:28;7.82;;;6.95;;
48487;SDS011;34289;48.572;13.378;2022-08-21T22:29:58;7.75;;;6.55;;
48487;SDS011;34289;48.572;13.378;2022-08-21T22:35:06;11.52;;;7.45;;
48487;SDS011;34289;48.572;13.378;2022-08-21T22:37:43;8.93;;;8.13;;
48487;SDS011;34289;48.572;13.378;2022-08-21T22:43:04;8.20;;;7.40;;
48487;SDS011;34289;48.572;13.378;2022-08-21T22:45:32;9.45;;;7.63;;
48487;SDS011;34289;48.572;13.378;2022-08-21T22:48:20;7.68;;;6.90;;
48487;SDS011;34289;48.572;13.378;2022-08-21T22:53:58;7.38;;;6.32;;
48487;SDS011;34289;48.572;13.378;2022-08-21T22:56:30;6.50;;;5.75;;
48487;SDS011;34289;48.572;13.378;2022-08-21T23:02:25;5.35;;;4.85;;
48487;SDS011;34289;48.572;13.378;2022-08-21T23:04:47;9.07;;;4.60;;
48487;SDS011;34289;48.572;13.378;2022-08-21T23:07:37;8.27;;;5.43;;
48487;SDS011;34289;48.572;13.378;2022-08-21T23:10:06;7.95;;;6.57;;
48487;SDS011;34289;48.572;13.378;2022-08-21T23:12:48;9.75;;;5.95;;
48487;SDS011;34289;48.572;13.378;2022-08-21T23:15:16;8.77;;;6.45;;
48487;SDS011;34289;48.572;13.378;2022-08-21T23:17:54;6.40;;;5.80;;
48487;SDS011;34289;48.572;13.378;2022-08-21T23:23:30;5.60;;;5.10;;
48487;SDS011;34289;48.572;13.378;2022-08-21T23:26:05;6.50;;;5.07;;
48487;SDS011;34289;48.572;13.378;2022-08-21T23:53:54;5.20;;;4.70;;
48487;SDS011;34289;48.572;13.378;2022-08-21T23:56:30;5.97;;;5.47;;
48487;SDS011;34289;48.572;13.378;2022-08-21T23:59:22;7.03;;;5.03;;
